sensor_id;sensor_type;location;lat;lon;timestamp;pressure;altitude;pressure_sealevel;temperature;humidity
37174;BME280;23068;51.430;5.540;2023-03-16T13:11:08;101082.78;;;14.69;86.29
37174;BME280;23068;51.430;5.540;2023-03-16T13:29:29;101059.13;;;14.80;87.24
37174;BME280;23068;51.430;5.540;2023-03-16T13:35:30;101063.44;;;14.73;84.36
37174;BME280;23068;51.430;5.540;2023-03-16T13:41:30;101049.78;;;15.11;78.94
37174;BME280;23068;51.430;5.540;2023-03-16T13:47:31;101043.59;;;15.18;81.33
37174;BME280;23068;51.430;5.540;2023-03-16T13:53:31;101050.81;;;14.92;78.71
37174;BME280;23068;51.430;5.540;2023-03-16T13:59:32;101035.75;;;15.07;78.14
37174;BME280;23068;51.430;5.540;2023-03-16T14:05:33;101009.50;;;15.09;78.56
37174;BME280;23068;51.430;5.540;2023-03-16T14:11:33;101004.25;;;15.33;77.10
37174;BME280;23068;51.430;5.540;2023-03-16T14:17:34;100997.16;;;15.58;74.30
37174;BME280;23068;51.430;5.540;2023-03-16T14:23:38;100991.72;;;15.16;72.80
37174;BME280;23068;51.430;5.540;2023-03-16T14:29:41;100977.34;;;15.42;69.19
37174;BME280;23068;51.430;5.540;2023-03-16T14:35:43;100965.50;;;15.69;68.00
37174;BME280;23068;51.430;5.540;2023-03-16T14:41:47;100963.28;;;15.64;65.78
37174;BME280;23068;51.430;5.540;2023-03-16T14:47:49;100964.47;;;15.01;71.02
37174;BME280;23068;51.430;5.540;2023-03-16T14:53:50;100954.44;;;14.86;71.34
37174;BME280;23068;51.430;5.540;2023-03-16T14:59:53;100957.78;;;15.05;67.33
37174;BME280;23068;51.430;5.540;2023-03-16T15:05:53;100941.91;;;14.50;72.27
37174;BME280;23068;51.430;5.540;2023-03-16T15:11:54;100935.88;;;14.39;73.79
37174;BME280;23068;51.430;5.540;2023-03-16T15:17:54;100933.91;;;14.23;71.01
37174;BME280;23068;51.430;5.540;2023-03-16T15:23:54;100942.06;;;14.13;72.33
37174;BME280;23068;51.430;5.540;2023-03-16T15:29:55;100931.19;;;14.23;72.55
37174;BME280;23068;51.430;5.540;2023-03-16T15:35:57;100919.81;;;14.11;77.49
37174;BME280;23068;51.430;5.540;2023-03-16T15:41:58;100912.16;;;13.98;78.94
37174;BME280;23068;51.430;5.540;2023-03-16T15:47:58;100903.94;;;14.00;74.99
37174;BME280;23068;51.430;5.540;2023-03-16T15:54:01;100903.31;;;14.06;86.09
37174;BME280;23068;51.430;5.540;2023-03-16T16:00:03;100900.47;;;14.08;98.50
37174;BME280;23068;51.430;5.540;2023-03-16T16:06:09;100891.94;;;14.12;99.03
37174;BME280;23068;51.430;5.540;2023-03-16T16:12:14;100887.69;;;13.74;99.23
37174;BME280;23068;51.430;5.540;2023-03-16T16:18:24;100874.69;;;13.69;100.00
37174;BME280;23068;51.430;5.540;2023-03-16T16:24:25;100874.84;;;13.50;100.00
37174;BME280;23068;51.430;5.540;2023-03-16T16:30:27;100879.75;;;13.37;100.00
37174;BME280;23068;51.430;5.540;2023-03-16T16:36:28;100880.59;;;13.37;100.00
37174;BME280;23068;51.430;5.540;2023-03-16T16:42:29;100878.84;;;13.46;100.00
37174;BME280;23068;51.430;5.540;2023-03-16T16:48:35;100879.34;;;13.32;100.00
37174;BME280;23068;51.430;5.540;2023-03-16T16:54:36;100871.03;;;13.25;100.00
37174;BME280;23068;51.430;5.540;2023-03-16T17:00:36;100879.03;;;12.98;100.00
37174;BME280;23068;51.430;5.540;2023-03-16T17:06:36;100879.38;;;12.85;100.00
37174;BME280;23068;51.430;5.540;2023-03-16T17:12:36;100891.91;;;12.57;100.00
37174;BME280;23068;51.430;5.540;2023-03-16T17:18:37;100885.72;;;12.37;100.00
37174;BME280;23068;51.430;5.540;2023-03-16T17:24:37;100890.56;;;12.24;100.00
37174;BME280;23068;51.430;5.540;2023-03-16T17:30:37;100891.09;;;12.08;100.00
37174;BME280;23068;51.430;5.540;2023-03-16T17:36:37;100884.19;;;11.86;100.00
37174;BME280;23068;51.430;5.540;2023-03-16T17:42:38;100885.13;;;11.66;100.00
37174;BME280;23068;51.430;5.540;2023-03-16T17:48:38;100893.56;;;11.51;100.00
37174;BME280;23068;51.430;5.540;2023-03-16T17:54:38;100899.41;;;11.26;100.00
37174;BME280;23068;51.430;5.540;2023-03-16T18:00:38;100893.28;;;11.05;100.00
37174;BME280;23068;51.430;5.540;2023-03-16T18:06:39;100884.06;;;10.88;100.00
37174;BME280;23068;51.430;5.540;2023-03-16T18:12:39;100879.09;;;10.83;100.00
37174;BME280;23068;51.430;5.540;2023-03-16T18:18:40;100881.16;;;10.70;100.00
37174;BME280;23068;51.430;5.540;2023-03-16T18:24:41;100896.56;;;10.57;100.00
37174;BME280;23068;51.430;5.540;2023-03-16T18:30:43;100885.97;;;10.46;100.00
37174;BME280;23068;51.430;5.540;2023-03-16T18:36:44;100889.47;;;10.25;100.00
37174;BME280;23068;51.430;5.540;2023-03-16T18:42:44;100897.09;;;10.09;100.00
37174;BME280;23068;51.430;5.540;2023-03-16T18:48:44;100910.81;;;10.04;100.00
37174;BME280;23068;51.430;5.540;2023-03-16T18:54:45;100901.97;;;10.04;100.00
37174;BME280;23068;51.430;5.540;2023-03-16T19:00:55;100904.88;;;10.01;100.00
37174;BME280;23068;51.430;5.540;2023-03-16T19:06:56;100896.59;;;10.04;100.00
37174;BME280;23068;51.430;5.540;2023-03-16T19:12:57;100877.19;;;10.02;100.00
37174;BME280;23068;51.430;5.540;2023-03-16T19:18:57;100872.34;;;9.96;100.00
37174;BME280;23068;51.430;5.540;2023-03-16T19:24:58;100861.19;;;9.91;100.00
37174;BME280;23068;51.430;5.540;2023-03-16T19:31:05;100853.53;;;9.86;100.00
37174;BME280;23068;51.430;5.540;2023-03-16T19:37:13;100866.66;;;9.89;100.00
37174;BME280;23068;51.430;5.540;2023-03-16T19:43:18;100852.22;;;9.80;100.00
37174;BME280;23068;51.430;5.540;2023-03-16T19:49:21;100843.38;;;9.80;100.00
37174;BME280;23068;51.430;5.540;2023-03-16T19:55:27;100843.03;;;9.73;100.00
37174;BME280;23068;51.430;5.540;2023-03-16T20:01:30;100835.91;;;9.63;100.00
37174;BME280;23068;51.430;5.540;2023-03-16T20:07:31;100840.22;;;9.54;100.00
37174;BME280;23068;51.430;5.540;2023-03-16T20:13:34;100831.09;;;9.56;100.00
37174;BME280;23068;51.430;5.540;2023-03-16T20:19:35;100810.31;;;9.60;100.00
37174;BME280;23068;51.430;5.540;2023-03-16T20:25:35;100806.91;;;9.58;100.00
37174;BME280;23068;51.430;5.540;2023-03-16T20:31:35;100806.34;;;9.54;100.00
37174;BME280;23068;51.430;5.540;2023-03-16T20:37:36;100789.25;;;9.46;100.00
37174;BME280;23068;51.430;5.540;2023-03-16T20:43:36;100790.47;;;9.42;100.00
37174;BME280;23068;51.430;5.540;2023-03-16T20:49:36;100775.97;;;9.23;100.00
37174;BME280;23068;51.430;5.540;2023-03-16T20:55:37;100787.81;;;8.98;100.00
37174;BME280;23068;51.430;5.540;2023-03-16T21:01:37;100778.38;;;8.83;100.00
37174;BME280;23068;51.430;5.540;2023-03-16T21:07:37;100782.25;;;8.68;100.00
37174;BME280;23068;51.430;5.540;2023-03-16T21:13:38;100768.47;;;8.51;100.00
37174;BME280;23068;51.430;5.540;2023-03-16T21:19:38;100780.34;;;8.36;100.00
37174;BME280;23068;51.430;5.540;2023-03-16T21:25:47;100769.97;;;8.20;100.00
37174;BME280;23068;51.430;5.540;2023-03-16T21:31:48;100779.53;;;8.12;100.00
37174;BME280;23068;51.430;5.540;2023-03-16T21:37:49;100763.56;;;8.01;100.00
37174;BME280;23068;51.430;5.540;2023-03-16T21:43:49;100765.38;;;8.00;100.00
37174;BME280;23068;51.430;5.540;2023-03-16T21:49:50;100767.91;;;8.02;100.00
37174;BME280;23068;51.430;5.540;2023-03-16T21:55:50;100776.25;;;7.97;100.00
37174;BME280;23068;51.430;5.540;2023-03-16T22:01:51;100769.47;;;7.93;100.00
37174;BME280;23068;51.430;5.540;2023-03-16T22:07:51;100752.88;;;7.89;100.00
37174;BME280;23068;51.430;5.540;2023-03-16T22:13:52;100735.53;;;7.84;100.00
37174;BME280;23068;51.430;5.540;2023-03-16T22:19:52;100734.34;;;7.88;100.00
37174;BME280;23068;51.430;5.540;2023-03-16T22:25:52;100738.84;;;7.87;100.00
37174;BME280;23068;51.430;5.540;2023-03-16T22:32:00;100742.34;;;7.88;100.00
37174;BME280;23068;51.430;5.540;2023-03-16T22:38:03;100768.59;;;7.81;100.00
37174;BME280;23068;51.430;5.540;2023-03-16T22:44:07;100767.25;;;7.76;100.00
37174;BME280;23068;51.430;5.540;2023-03-16T22:50:15;100740.88;;;7.73;100.00
37174;BME280;23068;51.430;5.540;2023-03-16T22:56:17;100730.44;;;7.69;100.00
37174;BME280;23068;51.430;5.540;2023-03-16T23:02:20;100741.09;;;7.69;100.00
37174;BME280;23068;51.430;5.540;2023-03-16T23:08:22;100731.41;;;7.68;100.00
37174;BME280;23068;51.430;5.540;2023-03-16T23:14:24;100729.59;;;7.69;100.00
37174;BME280;23068;51.430;5.540;2023-03-16T23:20:28;100722.69;;;7.66;100.00
37174;BME280;23068;51.430;5.540;2023-03-16T23:26:29;100724.84;;;7.61;100.00
37174;BME280;23068;51.430;5.540;2023-03-16T23:32:30;100723.63;;;7.54;100.00
37174;BME280;23068;51.430;5.540;2023-03-16T23:38:30;100728.44;;;7.49;100.00
37174;BME280;23068;51.430;5.540;2023-03-16T23:44:30;100723.09;;;7.49;100.00
37174;BME280;23068;51.430;5.540;2023-03-16T23:50:33;100716.22;;;7.47;100.00
37174;BME280;23068;51.430;5.540;2023-03-16T23:56:34;100726.13;;;7.45;100.00
